Time;durP1;ratioP1;P1;durP2;ratioP2;P2;SDS_P1;SDS_P2;PMS_P1;PMS_P2;Temp;Humidity;BMP_temperature;BMP_pressure;BME280_temperature;BME280_humidity;BME280_pressure;Samples;Min_cycle;Max_cycle;Signal;HPM_P1;HPM_P2
2023/01/22 00:02:18;;;;;;;36.38;25.08;;;3.80;99.90;;;;;;5048296;28;20037;-50
2023/01/22 00:04:44;;;;;;;32.95;21.98;;;3.90;99.90;;;;;;5051462;28;20041;-50
2023/01/22 00:07:10;;;;;;;30.40;20.90;;;4.10;99.90;;;;;;5044684;28;20094;-51
2023/01/22 00:09:36;;;;;;;31.52;21.92;;;4.10;99.90;;;;;;5046106;28;20028;-50
2023/01/22 00:12:02;;;;;;;30.27;21.15;;;4.20;99.90;;;;;;5047644;28;20477;-50
2023/01/22 00:14:27;;;;;;;31.17;21.73;;;4.10;99.90;;;;;;5052091;28;20116;-50
2023/01/22 00:16:53;;;;;;;35.13;22.13;;;4.10;99.90;;;;;;5051695;28;20083;-50
2023/01/22 00:19:19;;;;;;;34.20;23.50;;;4.10;99.90;;;;;;5030942;28;20037;-50
2023/01/22 00:21:44;;;;;;;29.02;20.92;;;4.20;99.90;;;;;;5042275;28;20034;-50
2023/01/22 00:24:10;;;;;;;33.10;22.80;;;4.20;99.90;;;;;;5047942;28;20072;-50
2023/01/22 00:26:36;;;;;;;32.80;23.13;;;4.30;99.90;;;;;;5022542;28;20071;-50
2023/01/22 00:29:03;;;;;;;34.70;23.48;;;4.30;99.90;;;;;;5046120;28;20021;-50
2023/01/22 00:31:28;;;;;;;29.85;20.40;;;4.40;99.90;;;;;;5052653;28;20037;-50
2023/01/22 00:33:54;;;;;;;31.02;20.70;;;4.40;99.90;;;;;;5049983;28;20137;-50
2023/01/22 00:36:21;;;;;;;33.15;23.15;;;4.30;99.90;;;;;;5047369;28;20033;-50
2023/01/22 00:38:48;;;;;;;27.60;18.95;;;4.30;99.90;;;;;;5049279;28;20036;-50
2023/01/22 00:41:15;;;;;;;30.25;20.90;;;4.40;99.90;;;;;;5046508;28;20117;-50
2023/01/22 00:43:41;;;;;;;32.67;22.33;;;4.40;99.90;;;;;;5044598;28;20037;-50
2023/01/22 00:46:12;;;;;;;27.80;18.13;;;4.40;99.90;;;;;;5041381;28;20086;-50
2023/01/22 00:48:38;;;;;;;30.60;20.60;;;4.50;99.90;;;;;;5051913;28;20390;-50
2023/01/22 00:51:07;;;;;;;27.83;19.13;;;4.60;99.90;;;;;;5027522;28;20049;-51
2023/01/22 00:53:33;;;;;;;27.33;19.17;;;4.60;99.90;;;;;;5040532;28;20041;-50
2023/01/22 00:56:01;;;;;;;28.13;20.23;;;4.50;99.90;;;;;;5049059;28;20061;-50
2023/01/22 00:58:28;;;;;;;25.17;18.38;;;4.50;99.90;;;;;;5042881;28;20041;-50
2023/01/22 01:00:55;;;;;;;25.42;17.92;;;4.50;99.90;;;;;;5039182;28;20049;-50
2023/01/22 01:03:27;;;;;;;23.73;16.77;;;4.40;99.90;;;;;;5032298;28;20396;-50
2023/01/22 01:05:53;;;;;;;22.13;16.00;;;4.30;99.90;;;;;;5053784;28;20037;-49
2023/01/22 01:08:19;;;;;;;21.35;16.08;;;4.30;99.90;;;;;;5046876;28;20042;-51
2023/01/22 01:10:45;;;;;;;23.60;17.23;;;4.20;99.90;;;;;;5052384;28;20041;-50
2023/01/22 01:13:11;;;;;;;24.90;17.55;;;4.20;99.90;;;;;;5051344;28;20021;-51
2023/01/22 01:15:37;;;;;;;24.58;18.20;;;4.30;99.90;;;;;;5055684;28;20095;-50
2023/01/22 01:18:03;;;;;;;23.65;17.13;;;4.40;99.90;;;;;;5036121;28;20044;-50
2023/01/22 01:20:29;;;;;;;29.63;17.80;;;4.50;99.90;;;;;;5051235;28;20025;-49
2023/01/22 01:22:55;;;;;;;21.90;15.50;;;4.60;99.90;;;;;;5047591;28;20094;-50
2023/01/22 01:25:21;;;;;;;20.48;14.98;;;4.70;99.90;;;;;;5050049;28;20070;-50
2023/01/22 01:27:46;;;;;;;22.05;16.10;;;4.70;99.90;;;;;;5047986;28;20041;-51
2023/01/22 01:30:12;;;;;;;21.77;15.70;;;4.60;99.90;;;;;;5048055;28;20032;-50
2023/01/22 01:32:38;;;;;;;22.08;14.18;;;4.60;99.90;;;;;;5050441;28;20473;-50
2023/01/22 01:35:04;;;;;;;23.75;13.95;;;4.60;99.90;;;;;;5053014;28;20025;-50
2023/01/22 01:37:30;;;;;;;20.27;15.18;;;4.70;99.90;;;;;;5070435;28;20041;-50
2023/01/22 01:39:56;;;;;;;21.73;14.75;;;4.70;99.90;;;;;;5052299;28;20035;-50
2023/01/22 01:42:30;;;;;;;21.55;15.05;;;4.80;99.90;;;;;;5051415;28;20040;-53
2023/01/22 01:45:31;;;;;;;21.17;15.18;;;4.90;99.90;;;;;;5053870;28;20060;-50
2023/01/22 01:48:09;;;;;;;19.65;13.45;;;5.00;99.90;;;;;;5050014;28;20056;-50
2023/01/22 01:50:41;;;;;;;18.05;13.48;;;5.00;99.90;;;;;;5052693;28;20086;-50
2023/01/22 01:53:07;;;;;;;15.68;12.95;;;5.10;99.90;;;;;;5049286;28;20033;-50
2023/01/22 01:55:34;;;;;;;17.70;12.15;;;5.10;99.90;;;;;;5047680;28;20068;-50
2023/01/22 01:58:06;;;;;;;18.23;12.80;;;5.10;99.90;;;;;;5050066;28;20037;-50
2023/01/22 02:00:34;;;;;;;16.55;12.55;;;5.10;99.90;;;;;;5051668;28;20037;-50
2023/01/22 02:03:00;;;;;;;16.15;12.55;;;5.20;99.90;;;;;;5050917;28;20029;-50
2023/01/22 02:05:30;;;;;;;19.00;15.40;;;5.20;99.90;;;;;;5036059;28;20049;-50
2023/01/22 02:07:56;;;;;;;17.10;13.30;;;5.20;99.90;;;;;;5050785;28;20036;-50
2023/01/22 02:10:22;;;;;;;17.73;13.25;;;5.30;99.90;;;;;;5050175;28;20064;-51
2023/01/22 02:12:48;;;;;;;15.70;11.27;;;5.30;99.90;;;;;;5050592;28;20072;-50
2023/01/22 02:15:14;;;;;;;19.83;15.20;;;5.30;99.90;;;;;;5049415;28;20087;-50
2023/01/22 02:17:40;;;;;;;20.42;14.93;;;5.40;99.90;;;;;;5035748;28;20047;-50
2023/01/22 02:20:06;;;;;;;16.35;12.93;;;5.40;99.90;;;;;;5058760;28;20033;-50
2023/01/22 02:22:36;;;;;;;20.48;13.52;;;5.30;99.90;;;;;;5046749;28;20033;-50
2023/01/22 02:25:02;;;;;;;17.50;11.73;;;5.50;99.90;;;;;;5051691;28;20041;-50
2023/01/22 02:27:28;;;;;;;13.85;11.98;;;5.60;99.90;;;;;;5049740;28;20033;-50
2023/01/22 02:29:53;;;;;;;15.23;11.75;;;5.50;99.90;;;;;;5042018;28;20182;-50
2023/01/22 02:32:19;;;;;;;20.10;12.85;;;5.50;99.90;;;;;;5048885;28;20501;-52
2023/01/22 02:34:45;;;;;;;17.38;12.75;;;5.60;99.90;;;;;;5035958;28;20040;-50
2023/01/22 02:37:11;;;;;;;14.60;11.90;;;5.70;99.90;;;;;;5044513;28;20027;-50
2023/01/22 02:39:36;;;;;;;16.85;12.85;;;5.80;99.90;;;;;;5040387;28;20379;-51
2023/01/22 02:42:04;;;;;;;15.43;12.23;;;5.70;99.90;;;;;;5045092;28;20132;-50
2023/01/22 02:44:29;;;;;;;16.90;12.35;;;5.70;99.90;;;;;;5051893;28;20072;-50
2023/01/22 02:46:55;;;;;;;18.83;12.88;;;5.70;99.90;;;;;;5050359;28;20554;-50
2023/01/22 02:49:21;;;;;;;19.10;13.23;;;5.50;99.90;;;;;;5045574;28;20108;-50
2023/01/22 02:51:47;;;;;;;15.23;12.07;;;5.50;99.90;;;;;;5053745;28;20374;-50
2023/01/22 02:54:12;;;;;;;19.15;15.48;;;5.50;99.90;;;;;;5053753;28;20087;-50
2023/01/22 02:56:38;;;;;;;16.45;12.52;;;5.70;99.90;;;;;;5049999;28;20055;-50
2023/01/22 02:59:04;;;;;;;14.93;12.25;;;5.70;99.90;;;;;;5046801;28;20098;-51
2023/01/22 03:01:30;;;;;;;14.23;11.75;;;5.80;99.90;;;;;;5045346;28;20534;-53
2023/01/22 03:03:58;;;;;;;16.65;11.23;;;5.70;99.90;;;;;;5051167;28;20028;-50
2023/01/22 03:06:26;;;;;;;14.90;11.50;;;5.90;99.90;;;;;;5047827;28;20033;-51
2023/01/22 03:08:54;;;;;;;16.30;12.02;;;5.90;99.90;;;;;;5032607;28;20056;-51
2023/01/22 03:11:21;;;;;;;17.50;12.18;;;5.60;99.90;;;;;;5050867;28;20119;-50
2023/01/22 03:22:01;;;;;;;16.75;12.52;;;5.90;99.90;;;;;;5037490;28;21498;-50
2023/01/22 03:24:27;;;;;;;16.33;11.80;;;6.00;99.90;;;;;;5046823;28;20124;-50
2023/01/22 03:26:53;;;;;;;15.93;11.48;;;5.90;99.90;;;;;;5047855;28;20049;-50
2023/01/22 03:29:18;;;;;;;15.25;12.00;;;5.90;99.90;;;;;;5043890;28;20573;-50
2023/01/22 03:31:47;;;;;;;16.85;12.95;;;5.70;99.90;;;;;;5036163;28;20175;-51
2023/01/22 03:34:17;;;;;;;15.77;11.77;;;5.70;99.90;;;;;;5048012;28;20064;-51
2023/01/22 03:36:43;;;;;;;18.83;12.73;;;5.80;99.90;;;;;;5051791;28;20120;-50
2023/01/22 03:39:09;;;;;;;17.95;13.20;;;5.80;99.90;;;;;;5052526;28;20465;-50
2023/01/22 03:41:35;;;;;;;15.93;12.65;;;5.90;99.90;;;;;;5023598;28;20374;-51
2023/01/22 03:44:02;;;;;;;18.30;12.73;;;5.90;99.90;;;;;;5050349;28;20044;-50
2023/01/22 03:46:29;;;;;;;15.55;12.68;;;5.90;99.90;;;;;;5050711;28;20416;-50
2023/01/22 03:48:55;;;;;;;18.35;13.50;;;5.90;99.90;;;;;;5046495;28;20086;-50
2023/01/22 03:51:21;;;;;;;20.75;13.65;;;6.00;99.90;;;;;;5049188;28;20025;-50
2023/01/22 03:53:48;;;;;;;19.08;13.65;;;5.90;99.90;;;;;;5044189;28;20381;-50
2023/01/22 03:56:17;;;;;;;18.92;12.73;;;5.90;99.90;;;;;;5045192;28;20137;-50
2023/01/22 03:58:43;;;;;;;20.80;13.88;;;6.00;99.90;;;;;;5049724;28;20033;-50
2023/01/22 04:01:11;;;;;;;20.88;13.10;;;5.90;99.90;;;;;;5034089;28;20043;-50
2023/01/22 04:03:37;;;;;;;18.25;14.05;;;5.80;99.90;;;;;;5045018;28;20060;-51
2023/01/22 04:06:04;;;;;;;24.92;15.77;;;5.70;99.90;;;;;;5050008;28;20035;-50
2023/01/22 04:08:32;;;;;;;20.52;13.70;;;5.00;99.90;;;;;;5045007;28;20389;-50
2023/01/22 04:10:59;;;;;;;22.70;17.48;;;4.40;99.90;;;;;;5052411;28;20021;-51
2023/01/22 04:13:27;;;;;;;23.02;14.80;;;4.20;99.90;;;;;;5050142;28;20354;-51
2023/01/22 04:15:53;;;;;;;24.75;16.50;;;4.10;99.90;;;;;;5047506;28;20040;-50
2023/01/22 04:18:19;;;;;;;26.02;18.00;;;4.00;99.90;;;;;;5049613;28;20110;-50
2023/01/22 04:20:47;;;;;;;29.27;20.40;;;4.10;99.90;;;;;;5051884;28;20052;-51
2023/01/22 04:23:13;;;;;;;30.90;21.17;;;4.40;99.90;;;;;;5044377;28;20034;-51
2023/01/22 04:25:39;;;;;;;41.30;26.83;;;4.40;99.90;;;;;;5046439;28;20033;-50
2023/01/22 04:28:06;;;;;;;35.88;23.00;;;4.60;99.90;;;;;;5052062;28;20111;-50
2023/01/22 04:30:32;;;;;;;40.25;23.17;;;4.50;99.90;;;;;;5045600;28;20473;-50
2023/01/22 04:32:57;;;;;;;37.00;23.33;;;4.70;99.90;;;;;;5047137;28;20025;-50
2023/01/22 04:35:23;;;;;;;36.33;24.45;;;4.90;99.90;;;;;;5048672;28;20025;-50
2023/01/22 04:37:49;;;;;;;32.95;22.98;;;5.10;99.90;;;;;;5048348;28;20069;-51
2023/01/22 04:40:15;;;;;;;33.65;21.00;;;5.30;99.90;;;;;;5049113;28;20639;-51
2023/01/22 04:42:40;;;;;;;33.10;22.52;;;5.40;99.90;;;;;;5052167;28;20033;-50
2023/01/22 04:45:07;;;;;;;31.08;20.42;;;5.50;99.90;;;;;;5047327;28;20095;-50
2023/01/22 04:47:33;;;;;;;27.40;19.45;;;5.50;99.90;;;;;;5016441;28;20061;-50
2023/01/22 04:49:59;;;;;;;28.05;18.45;;;5.50;99.90;;;;;;5047210;28;20035;-50
2023/01/22 04:52:25;;;;;;;29.63;19.77;;;5.60;99.90;;;;;;5049059;28;20124;-50
2023/01/22 04:54:52;;;;;;;38.25;24.17;;;5.60;99.90;;;;;;5048084;28;20076;-50
2023/01/22 04:57:18;;;;;;;34.10;22.65;;;5.10;99.90;;;;;;5044823;28;20500;-50
2023/01/22 04:59:44;;;;;;;34.05;22.08;;;4.90;99.90;;;;;;5030742;28;20041;-50
2023/01/22 05:02:09;;;;;;;28.02;19.52;;;4.90;99.90;;;;;;5046286;28;20037;-50
2023/01/22 05:04:35;;;;;;;38.25;22.08;;;4.70;99.90;;;;;;5013494;28;20045;-50
2023/01/22 05:07:01;;;;;;;29.85;19.55;;;4.70;99.90;;;;;;5042929;28;20499;-51
2023/01/22 05:09:26;;;;;;;25.58;18.15;;;5.00;99.90;;;;;;5029565;28;20401;-50
2023/01/22 05:11:52;;;;;;;28.67;19.55;;;5.20;99.90;;;;;;5046798;28;20155;-51
2023/01/22 05:14:18;;;;;;;30.08;20.55;;;5.30;99.90;;;;;;5042544;28;20120;-50
2023/01/22 05:16:44;;;;;;;29.25;18.83;;;5.20;99.90;;;;;;5029970;28;20042;-50
2023/01/22 05:19:09;;;;;;;27.02;20.02;;;5.10;99.90;;;;;;5049039;28;20029;-51
2023/01/22 05:21:35;;;;;;;33.72;20.70;;;5.10;99.90;;;;;;5053137;28;20045;-51
2023/01/22 05:24:01;;;;;;;25.77;19.13;;;5.30;99.90;;;;;;5048064;28;20401;-52
2023/01/22 05:26:27;;;;;;;28.23;18.83;;;5.40;99.90;;;;;;5041163;28;20037;-51
2023/01/22 05:28:52;;;;;;;32.80;19.95;;;5.50;99.90;;;;;;5050455;28;20037;-50
2023/01/22 05:31:18;;;;;;;26.88;18.63;;;5.40;99.90;;;;;;5050234;28;20385;-51
2023/01/22 05:33:44;;;;;;;30.27;18.23;;;5.40;99.90;;;;;;5042198;28;20037;-50
2023/01/22 05:36:11;;;;;;;30.92;20.13;;;5.20;99.90;;;;;;5051111;28;20086;-50
2023/01/22 05:38:37;;;;;;;27.13;19.60;;;5.40;99.90;;;;;;5048691;28;20559;-50
2023/01/22 05:41:03;;;;;;;31.13;21.70;;;5.40;99.90;;;;;;5042842;28;20433;-51
2023/01/22 05:43:29;;;;;;;36.40;21.95;;;4.90;99.90;;;;;;5045271;28;20024;-50
2023/01/22 05:45:59;;;;;;;30.55;19.83;;;5.20;99.90;;;;;;5030407;28;20059;-51
2023/01/22 05:48:25;;;;;;;30.10;20.25;;;5.30;99.90;;;;;;5031813;28;20326;-50
2023/01/22 05:50:51;;;;;;;31.27;19.75;;;5.30;99.90;;;;;;5050497;28;20021;-51
2023/01/22 05:53:17;;;;;;;30.58;20.77;;;4.90;99.90;;;;;;5049940;28;20119;-50
2023/01/22 05:55:43;;;;;;;35.75;23.20;;;4.90;99.90;;;;;;5029572;28;20056;-51
2023/01/22 05:58:08;;;;;;;35.70;21.67;;;4.90;99.90;;;;;;5021238;28;20091;-51
2023/01/22 06:00:34;;;;;;;33.75;22.17;;;4.90;99.90;;;;;;5050416;28;20036;-50
2023/01/22 06:03:00;;;;;;;31.15;20.73;;;5.00;99.90;;;;;;5052941;28;20082;-50
2023/01/22 06:05:26;;;;;;;36.40;23.45;;;4.90;99.90;;;;;;5051603;28;20065;-50
2023/01/22 06:07:52;;;;;;;36.72;22.08;;;4.80;99.90;;;;;;5036004;28;20079;-50
2023/01/22 06:10:18;;;;;;;37.47;22.42;;;4.50;99.90;;;;;;5045323;28;20028;-50
2023/01/22 06:12:44;;;;;;;33.03;21.67;;;4.80;99.90;;;;;;5047078;28;20117;-50
2023/01/22 06:15:10;;;;;;;46.67;27.48;;;4.90;99.90;;;;;;5054326;28;20123;-50
2023/01/22 06:17:37;;;;;;;42.58;29.15;;;5.10;99.90;;;;;;5038364;28;20415;-50
2023/01/22 06:20:04;;;;;;;35.58;22.70;;;5.40;99.90;;;;;;5047394;28;20032;-50
2023/01/22 06:22:30;;;;;;;37.00;22.90;;;5.40;99.90;;;;;;5017320;28;20123;-50
2023/01/22 06:24:56;;;;;;;36.60;25.10;;;5.50;99.90;;;;;;5053074;28;20148;-50
2023/01/22 06:27:21;;;;;;;31.70;23.55;;;5.60;99.90;;;;;;5045908;28;20029;-50
2023/01/22 06:29:47;;;;;;;33.75;22.58;;;5.70;99.90;;;;;;5033200;28;20049;-50
2023/01/22 06:32:13;;;;;;;34.25;23.77;;;5.70;99.90;;;;;;5031836;28;20087;-50
2023/01/22 06:34:39;;;;;;;36.67;23.15;;;5.70;99.90;;;;;;5049142;28;20056;-51
2023/01/22 06:37:05;;;;;;;37.13;24.70;;;5.70;99.90;;;;;;5048776;28;20037;-50
2023/01/22 06:39:30;;;;;;;36.80;26.15;;;5.70;99.90;;;;;;5048052;28;20025;-50
2023/01/22 06:41:56;;;;;;;39.72;25.77;;;5.70;99.90;;;;;;5053998;28;20033;-50
2023/01/22 06:44:22;;;;;;;38.47;25.00;;;5.70;99.90;;;;;;5052423;28;20122;-52
2023/01/22 06:46:48;;;;;;;34.50;24.00;;;5.60;99.90;;;;;;5043401;28;20033;-50
2023/01/22 06:49:13;;;;;;;35.17;23.42;;;5.60;99.90;;;;;;5043225;28;20028;-51
2023/01/22 06:51:40;;;;;;;32.15;22.80;;;5.70;99.90;;;;;;5020110;28;20500;-50
2023/01/22 06:54:06;;;;;;;29.60;21.42;;;5.80;99.90;;;;;;5052276;28;20039;-50
2023/01/22 06:56:32;;;;;;;34.25;24.60;;;5.80;99.90;;;;;;5055957;28;20044;-51
2023/01/22 06:58:58;;;;;;;35.10;23.63;;;5.90;99.90;;;;;;5018891;28;20043;-51
2023/01/22 07:01:24;;;;;;;31.92;22.02;;;6.10;99.90;;;;;;5049146;28;20524;-51
2023/01/22 07:03:51;;;;;;;31.73;22.10;;;6.10;99.90;;;;;;5053977;28;20477;-50
2023/01/22 07:06:17;;;;;;;42.00;26.52;;;6.10;99.90;;;;;;5047948;28;20067;-50
2023/01/22 07:08:43;;;;;;;54.60;29.83;;;6.10;99.90;;;;;;5047911;28;20036;-50
2023/01/22 07:11:09;;;;;;;45.05;25.90;;;6.20;99.90;;;;;;5007161;28;20059;-50
2023/01/22 07:13:35;;;;;;;51.08;29.20;;;6.00;99.90;;;;;;5046701;28;20461;-51
2023/01/22 07:16:04;;;;;;;45.85;27.40;;;5.90;99.90;;;;;;5036194;28;20037;-54
2023/01/22 07:18:30;;;;;;;40.05;25.88;;;5.80;99.90;;;;;;5049496;28;20075;-50
2023/01/22 07:21:01;;;;;;;41.17;25.75;;;5.70;99.90;;;;;;5051210;28;20037;-51
2023/01/22 07:23:27;;;;;;;39.67;25.85;;;5.80;99.90;;;;;;5034816;28;20041;-51
2023/01/22 07:25:53;;;;;;;62.70;40.13;;;6.00;99.90;;;;;;5052935;28;20029;-50
2023/01/22 07:28:19;;;;;;;63.92;39.92;;;6.10;99.90;;;;;;5049137;28;20377;-51
2023/01/22 07:30:47;;;;;;;69.82;44.28;;;6.10;99.90;;;;;;5050398;28;20078;-50
2023/01/22 07:33:14;;;;;;;46.88;31.83;;;6.00;99.90;;;;;;5053536;28;20041;-50
2023/01/22 07:35:39;;;;;;;44.15;28.15;;;6.00;99.90;;;;;;5049323;28;20020;-50
2023/01/22 07:38:06;;;;;;;36.30;25.40;;;6.00;99.90;;;;;;5034029;28;20048;-51
2023/01/22 07:40:32;;;;;;;43.17;27.40;;;6.20;99.90;;;;;;5044616;28;20027;-50
2023/01/22 07:42:58;;;;;;;37.47;24.90;;;6.30;99.90;;;;;;5047073;28;20129;-50
2023/01/22 07:45:24;;;;;;;31.55;21.55;;;6.50;99.90;;;;;;5047000;28;20044;-51
2023/01/22 07:47:56;;;;;;;28.95;20.75;;;6.60;99.90;;;;;;5049707;28;20029;-50
2023/01/22 07:50:23;;;;;;;28.95;20.70;;;6.30;99.90;;;;;;5030609;28;20029;-51
2023/01/22 07:52:49;;;;;;;33.03;23.33;;;6.00;99.90;;;;;;5048698;28;20029;-51
2023/01/22 07:55:14;;;;;;;130.50;68.30;;;6.30;99.90;;;;;;5048288;28;20485;-51
2023/01/22 07:57:40;;;;;;;36.38;25.80;;;6.80;99.90;;;;;;5052015;28;20079;-50
2023/01/22 08:00:09;;;;;;;44.38;30.10;;;;;;;;;;5034722;28;20037;-51
2023/01/22 08:02:36;;;;;;;35.15;24.38;;;7.80;99.90;;;;;;5032089;28;20461;-50
2023/01/22 08:05:01;;;;;;;27.83;20.92;;;8.20;99.90;;;;;;5030796;28;20122;-50
2023/01/22 08:07:27;;;;;;;204.82;139.95;;;8.90;99.90;;;;;;5050181;28;20484;-51
2023/01/22 08:09:53;;;;;;;46.25;36.50;;;;;;;;;;5046726;28;20029;-51
2023/01/22 08:12:19;;;;;;;25.33;19.98;;;;;;;;;;5049239;28;20111;-50
2023/01/22 08:14:45;;;;;;;32.85;26.08;;;;;;;;;;5048550;28;20029;-50
2023/01/22 08:17:11;;;;;;;36.63;26.33;;;9.90;99.90;;;;;;5050776;28;20033;-52
2023/01/22 08:19:37;;;;;;;31.58;23.63;;;9.90;99.90;;;;;;5031482;28;20059;-50
2023/01/22 08:22:03;;;;;;;25.80;20.50;;;;;;;;;;5050741;28;20045;-51
2023/01/22 08:24:30;;;;;;;36.95;26.00;;;10.50;99.90;;;;;;5047809;28;20051;-51
2023/01/22 08:26:56;;;;;;;39.72;30.08;;;;;;;;;;5049332;28;20037;-51
2023/01/22 08:29:22;;;;;;;25.67;18.50;;;10.60;99.90;;;;;;5029551;28;20120;-50
2023/01/22 08:31:48;;;;;;;24.77;18.38;;;10.60;99.90;;;;;;5045978;28;20059;-49
2023/01/22 08:34:13;;;;;;;51.47;38.10;;;10.60;99.90;;;;;;5040239;28;20087;-51
2023/01/22 08:36:39;;;;;;;53.38;40.55;;;9.50;99.90;;;;;;5046646;28;20120;-52
2023/01/22 08:39:05;;;;;;;25.67;20.50;;;9.00;99.90;;;;;;5049778;28;20025;-52
2023/01/22 08:41:31;;;;;;;25.02;19.20;;;;;;;;;;5016583;28;20045;-53
2023/01/22 08:43:57;;;;;;;23.23;17.08;;;8.20;99.90;;;;;;5050581;28;20508;-52
2023/01/22 08:46:22;;;;;;;23.52;17.60;;;8.10;99.90;;;;;;5038658;28;20029;-53
2023/01/22 08:48:49;;;;;;;22.73;17.40;;;8.30;99.90;;;;;;5046361;28;20033;-53
2023/01/22 08:51:15;;;;;;;19.20;16.48;;;8.30;99.90;;;;;;5047991;28;20033;-52
2023/01/22 08:53:41;;;;;;;21.88;17.75;;;8.30;99.90;;;;;;5047972;28;20037;-52
2023/01/22 08:56:07;;;;;;;25.92;19.30;;;7.90;99.90;;;;;;5047858;28;20409;-52
2023/01/22 08:58:33;;;;;;;30.92;24.08;;;;;;;;;;5048781;28;20371;-52
2023/01/22 09:00:59;;;;;;;33.60;23.35;;;;;;;;;;5034125;28;20040;-52
2023/01/22 09:03:25;;;;;;;30.23;22.00;;;;;;;;;;5049578;28;20029;-51
2023/01/22 09:05:51;;;;;;;28.45;21.15;;;7.50;99.90;;;;;;5043035;28;20056;-52
2023/01/22 09:08:17;;;;;;;31.13;20.85;;;7.20;99.90;;;;;;5030709;28;20183;-53
2023/01/22 09:10:43;;;;;;;28.63;20.75;;;7.20;99.90;;;;;;5029870;28;20393;-51
2023/01/22 09:13:09;;;;;;;28.10;20.95;;;7.20;99.90;;;;;;5044140;28;20548;-53
2023/01/22 09:15:35;;;;;;;31.25;22.48;;;7.10;99.90;;;;;;5029680;28;20041;-51
2023/01/22 09:18:01;;;;;;;27.30;20.92;;;7.00;99.90;;;;;;5048472;28;20021;-51
2023/01/22 09:20:27;;;;;;;24.70;19.15;;;7.00;99.90;;;;;;5049299;28;20035;-51
2023/01/22 09:22:53;;;;;;;24.55;18.67;;;6.90;99.90;;;;;;5030671;28;20493;-52
2023/01/22 09:25:19;;;;;;;25.13;17.52;;;7.00;99.90;;;;;;5053595;28;20380;-52
2023/01/22 09:27:45;;;;;;;22.48;16.13;;;7.20;99.90;;;;;;5054556;28;20033;-52
2023/01/22 09:30:13;;;;;;;27.15;16.38;;;;;;;;;;5045187;28;20033;-52
2023/01/22 09:32:39;;;;;;;30.23;20.55;;;6.70;99.90;;;;;;5054605;28;20048;-52
2023/01/22 09:35:07;;;;;;;31.35;21.38;;;6.90;99.90;;;;;;5032790;28;20501;-51
2023/01/22 09:37:33;;;;;;;25.17;16.42;;;7.40;99.90;;;;;;5047545;28;20044;-52
2023/01/22 09:39:59;;;;;;;30.33;20.20;;;7.30;99.90;;;;;;5053927;28;20033;-51
2023/01/22 09:42:31;;;;;;;31.75;21.80;;;8.30;99.90;;;;;;5035142;28;20033;-51
2023/01/22 09:45:01;;;;;;;26.98;19.02;;;9.40;99.90;;;;;;5051974;28;20044;-51
2023/01/22 09:47:32;;;;;;;26.48;18.98;;;;;;;;;;5053314;28;20060;-52
2023/01/22 09:50:07;;;;;;;25.40;18.10;;;;;;;;;;5048496;28;20021;-51
2023/01/22 09:52:36;;;;;;;21.42;16.50;;;9.40;99.90;;;;;;5052865;28;20032;-51
2023/01/22 09:55:04;;;;;;;15.07;10.45;;;9.30;99.90;;;;;;5046757;28;20048;-51
2023/01/22 09:57:30;;;;;;;15.63;12.65;;;8.00;99.90;;;;;;5046177;28;20036;-52
2023/01/22 09:59:57;;;;;;;15.68;12.85;;;7.80;99.90;;;;;;5045399;28;20033;-52
2023/01/22 10:02:37;;;;;;;11.85;9.63;;;7.60;99.90;;;;;;5048263;28;20036;-53
2023/01/22 10:05:31;;;;;;;17.13;12.88;;;7.20;99.90;;;;;;5049071;28;20051;-51
2023/01/22 10:08:00;;;;;;;19.23;14.18;;;;;;;;;;5052351;28;20044;-52
2023/01/22 10:10:27;;;;;;;19.88;15.43;;;7.40;99.90;;;;;;5055560;28;20052;-51
2023/01/22 10:13:26;;;;;;;39.20;26.15;;;7.30;99.90;;;;;;5050725;28;20029;-54
2023/01/22 10:15:53;;;;;;;16.75;13.50;;;;;;;;;;5050181;28;20025;-53
2023/01/22 10:33:43;;;;;;;9.50;6.50;;;9.20;99.90;;;;;;5104300;27;20811;-53
2023/01/22 10:36:13;;;;;;;7.18;6.45;;;7.90;99.90;;;;;;5090532;28;20082;-51
2023/01/22 10:38:39;;;;;;;7.93;6.63;;;7.80;99.90;;;;;;5088159;28;20024;-52
2023/01/22 10:41:05;;;;;;;7.78;5.82;;;7.80;99.90;;;;;;5094239;28;20023;-51
2023/01/22 10:43:34;;;;;;;7.82;4.40;;;7.80;99.90;;;;;;5102852;28;20086;-52
2023/01/22 10:46:23;;;;;;;7.28;5.65;;;7.10;99.90;;;;;;5088513;28;20030;-51
2023/01/22 10:48:59;;;;;;;7.43;6.25;;;7.20;99.90;;;;;;5085244;28;20961;-51
2023/01/22 10:51:35;;;;;;;9.38;8.48;;;7.20;99.90;;;;;;5081276;28;20476;-53
2023/01/22 10:54:01;;;;;;;10.15;7.75;;;7.90;99.90;;;;;;5086247;28;20118;-51
2023/01/22 10:56:32;;;;;;;10.68;7.90;;;;;;;;;;5096990;28;20116;-52
2023/01/22 10:59:00;;;;;;;10.23;7.25;;;8.00;99.90;;;;;;5081063;28;20040;-52
2023/01/22 11:01:38;;;;;;;11.07;7.88;;;8.00;99.90;;;;;;5083729;28;20235;-53
2023/01/22 11:04:28;;;;;;;9.15;7.60;;;7.90;99.90;;;;;;5087220;28;20387;-51
2023/01/22 11:06:56;;;;;;;9.98;7.97;;;;;;;;;;5076848;28;20108;-51
2023/01/22 11:09:50;;;;;;;9.73;8.48;;;7.70;99.90;;;;;;5077700;28;20095;-51
2023/01/22 11:12:26;;;;;;;10.25;8.68;;;9.00;99.90;;;;;;5076873;28;20571;-53
2023/01/22 11:15:04;;;;;;;8.52;7.50;;;9.00;99.90;;;;;;5076280;28;20031;-52
2023/01/22 11:17:38;;;;;;;9.48;7.60;;;9.30;99.90;;;;;;5107858;27;20059;-53
2023/01/22 11:20:32;;;;;;;14.50;12.10;;;9.20;99.90;;;;;;5073308;28;20090;-52
2023/01/22 11:23:10;;;;;;;11.23;8.38;;;8.80;99.90;;;;;;5076214;28;20045;-51
2023/01/22 11:25:54;;;;;;;11.35;8.60;;;8.30;99.90;;;;;;5088831;28;20020;-53
2023/01/22 11:28:44;;;;;;;11.07;8.93;;;7.80;99.90;;;;;;5082041;28;20060;-52
2023/01/22 11:31:25;;;;;;;9.70;8.45;;;;;;;;;;5075120;28;20028;-49
2023/01/22 11:34:05;;;;;;;10.07;8.37;;;;;;;;;;5072866;28;20371;-54
2023/01/22 11:36:33;;;;;;;13.13;10.50;;;7.60;99.90;;;;;;5062371;28;20277;-56
2023/01/22 11:39:07;;;;;;;15.13;11.73;;;8.10;99.90;;;;;;5062178;28;20033;-51
2023/01/22 11:41:36;;;;;;;12.00;9.77;;;8.00;99.90;;;;;;5063589;28;20545;-54
2023/01/22 11:44:02;;;;;;;13.20;9.60;;;;;;;;;;5061533;28;20086;-54
2023/01/22 11:46:31;;;;;;;11.10;9.10;;;;;;;;;;5062722;28;20418;-56
2023/01/22 11:49:06;;;;;;;17.23;11.02;;;;;;;;;;5061404;28;20024;-53
2023/01/22 11:51:39;;;;;;;13.68;11.65;;;;;;;;;;5065529;28;20047;-55
2023/01/22 11:54:24;;;;;;;15.70;12.52;;;;;;;;;;5067302;28;20064;-54
2023/01/22 11:56:56;;;;;;;13.45;11.13;;;;;;;;;;5067670;28;20707;-57
2023/01/22 11:59:37;;;;;;;12.85;10.10;;;7.30;99.90;;;;;;5063490;28;20024;-53
2023/01/22 12:02:12;;;;;;;11.48;9.18;;;7.30;99.90;;;;;;5079869;28;20124;-52
2023/01/22 12:04:56;;;;;;;15.85;13.38;;;7.10;99.90;;;;;;5064552;28;20150;-54
2023/01/22 12:07:37;;;;;;;12.15;9.93;;;7.10;99.90;;;;;;5062090;28;20037;-55
2023/01/22 12:10:21;;;;;;;14.70;10.30;;;7.10;99.90;;;;;;5074749;28;20077;-52
2023/01/22 12:13:08;;;;;;;12.38;9.23;;;6.90;99.90;;;;;;5057164;28;20041;-51
2023/01/22 12:15:48;;;;;;;18.23;13.52;;;6.90;99.90;;;;;;5066480;28;20025;-45
2023/01/22 12:18:26;;;;;;;21.23;15.70;;;7.00;99.90;;;;;;5069571;28;20071;-52
2023/01/22 12:21:04;;;;;;;24.00;18.25;;;6.90;99.90;;;;;;5071270;28;20039;-53
2023/01/22 12:23:33;;;;;;;25.52;19.48;;;;;;;;;;5066070;28;20025;-52
2023/01/22 12:26:22;;;;;;;20.00;16.20;;;6.70;99.90;;;;;;5022719;28;20036;-53
2023/01/22 12:29:16;;;;;;;21.20;18.10;;;6.90;99.90;;;;;;5063476;28;20036;-53
2023/01/22 12:32:21;;;;;;;36.45;21.23;;;7.00;99.90;;;;;;5068089;28;20044;-52
2023/01/22 12:34:56;;;;;;;38.72;21.33;;;6.70;99.90;;;;;;4979208;28;20073;-53
2023/01/22 12:37:39;;;;;;;37.95;23.92;;;6.80;99.90;;;;;;5012313;28;20496;-51
2023/01/22 12:40:05;;;;;;;;;;;;;;;;;;5017182;28;20137;-51
2023/01/22 12:42:43;;;;;;;38.47;21.67;;;;;;;;;;5014831;28;20016;-51
2023/01/22 12:45:10;;;;;;;29.98;17.83;;;;;;;;;;4994102;28;20038;-52
2023/01/22 12:48:14;;;;;;;12.77;10.75;;;6.90;99.90;;;;;;5018827;28;20112;-52
2023/01/22 12:50:51;;;;;;;11.48;9.85;;;;;;;;;;5011853;28;20485;-50
2023/01/22 12:53:22;;;;;;;11.68;10.23;;;;;;;;;;5010234;28;20057;-53
2023/01/22 12:56:00;;;;;;;16.63;12.93;;;;;;;;;;4993236;28;20049;-51
2023/01/22 12:58:29;;;;;;;17.63;11.77;;;;;;;;;;5009889;28;20374;-52
2023/01/22 13:01:12;;;;;;;16.30;12.55;;;6.80;99.90;;;;;;5010680;28;20437;-51
2023/01/22 13:03:39;;;;;;;15.13;13.18;;;7.00;99.90;;;;;;5012014;28;20757;-50
2023/01/22 13:06:21;;;;;;;14.88;13.23;;;7.00;99.90;;;;;;5061686;28;20047;-52
2023/01/22 13:08:47;;;;;;;31.20;21.00;;;;;;;;;;5076487;28;20120;-51
2023/01/22 13:11:14;;;;;;;24.40;18.15;;;;;;;;;;5078691;28;20269;-50
2023/01/22 13:13:40;;;;;;;16.92;15.10;;;;;;;;;;5078026;28;20120;-51
2023/01/22 13:16:17;;;;;;;16.23;14.52;;;;;;;;;;5070364;28;20072;-53
2023/01/22 13:18:53;;;;;;;16.67;12.68;;;;;;;;;;5074697;28;20083;-54
2023/01/22 13:21:29;;;;;;;18.75;14.38;;;;;;;;;;5069534;28;20074;-53
2023/01/22 13:24:00;;;;;;;20.27;16.58;;;;;;;;;;5070181;28;20482;-53